createdAt,value
2019-02-04T00:00:24.914Z,99.40
2019-02-04T00:04:50.615Z,99.40
2019-02-04T00:09:15.406Z,99.50
2019-02-04T00:13:39.374Z,99.60
2019-02-04T00:18:03.458Z,99.70
2019-02-04T00:22:27.272Z,99.80
2019-02-04T00:26:51.885Z,99.90
2019-02-04T00:31:15.903Z,99.90
2019-02-04T00:35:39.915Z,99.90
2019-02-04T00:40:04.768Z,99.90
2019-02-04T00:44:28.657Z,99.90
2019-02-04T00:48:52.403Z,99.90
2019-02-04T00:53:16.131Z,99.90
2019-02-04T00:57:39.779Z,99.90
2019-02-04T01:02:04.049Z,99.90
2019-02-04T01:06:28.098Z,99.90
2019-02-04T01:10:51.876Z,99.90
2019-02-04T01:15:15.564Z,99.90
2019-02-04T01:19:39.391Z,99.90
2019-02-04T01:24:03.323Z,99.90
2019-02-04T01:28:27.147Z,99.90
2019-02-04T01:32:51.102Z,99.90
2019-02-04T01:37:14.948Z,99.90
2019-02-04T01:41:38.922Z,99.90
2019-02-04T01:46:02.880Z,99.90
2019-02-04T01:50:26.730Z,99.90
2019-02-04T01:54:50.816Z,99.90
2019-02-04T01:59:15.786Z,99.90
2019-02-04T02:03:39.836Z,99.90
2019-02-04T02:08:03.475Z,99.90
2019-02-04T02:12:27.478Z,99.90
2019-02-04T02:16:51.329Z,99.90
2019-02-04T02:21:15.506Z,99.90
2019-02-04T02:25:39.316Z,99.90
2019-02-04T02:30:04.941Z,99.90
2019-02-04T02:34:29.224Z,99.90
2019-02-04T02:38:53.236Z,99.90
2019-02-04T02:43:17.032Z,99.90
2019-02-04T02:47:41.164Z,99.90
2019-02-04T02:52:05.290Z,99.90
2019-02-04T02:56:30.410Z,99.90
2019-02-04T03:00:54.352Z,99.90
2019-02-04T03:05:18.244Z,99.90
2019-02-04T03:09:42.026Z,99.90
2019-02-04T03:14:05.772Z,99.90
2019-02-04T03:18:29.865Z,99.90
2019-02-04T03:22:53.645Z,99.90
2019-02-04T03:27:17.782Z,99.90
2019-02-04T03:31:45.686Z,99.90
2019-02-04T03:36:07.253Z,99.90
2019-02-04T03:40:32.359Z,99.90
2019-02-04T03:44:56.216Z,99.90
2019-02-04T03:49:19.851Z,99.90
2019-02-04T03:53:43.851Z,99.90
2019-02-04T03:58:07.858Z,99.90
2019-02-04T04:02:31.960Z,99.90
2019-02-04T04:06:55.839Z,99.90
2019-02-04T04:11:19.675Z,99.90
2019-02-04T04:15:43.692Z,99.90
2019-02-04T04:20:10.442Z,99.90
2019-02-04T04:24:34.568Z,99.90
2019-02-04T04:28:58.753Z,99.90
2019-02-04T04:33:23.083Z,99.90
2019-02-04T04:37:47.162Z,99.90
2019-02-04T04:42:11.097Z,99.90
2019-02-04T04:46:34.949Z,99.90
2019-02-04T04:50:58.825Z,99.90
2019-02-04T04:55:27.238Z,99.90
2019-02-04T04:59:51.008Z,99.90
2019-02-04T05:04:15.315Z,99.90
2019-02-04T05:08:39.593Z,99.90
2019-02-04T05:13:03.548Z,99.90
2019-02-04T05:17:27.131Z,99.90
2019-02-04T05:21:51.224Z,99.90
2019-02-04T05:26:14.895Z,99.90
2019-02-04T05:30:38.941Z,99.90
2019-02-04T05:35:02.564Z,99.90
2019-02-04T05:39:26.225Z,99.90
2019-02-04T05:43:50.300Z,99.90
2019-02-04T05:48:14.285Z,99.90
2019-02-04T05:52:37.788Z,99.90
2019-02-04T05:57:01.578Z,99.90
2019-02-04T06:01:25.107Z,99.90
2019-02-04T06:05:49.041Z,99.90
2019-02-04T06:10:12.836Z,99.90
2019-02-04T06:14:36.790Z,99.90
2019-02-04T06:19:01.284Z,99.90
2019-02-04T06:23:25.789Z,99.90
2019-02-04T06:27:49.590Z,99.90
2019-02-04T06:32:13.435Z,99.90
2019-02-04T06:36:37.963Z,99.90
2019-02-04T06:41:01.543Z,99.90
2019-02-04T06:45:25.941Z,99.90
2019-02-04T06:49:49.500Z,99.90
2019-02-04T06:54:13.252Z,99.90
2019-02-04T06:58:36.790Z,99.90
2019-02-04T07:03:00.823Z,99.90
2019-02-04T07:07:24.755Z,99.90
2019-02-04T07:11:49.152Z,99.90
2019-02-04T07:16:12.942Z,99.90
2019-02-04T07:20:36.507Z,99.90
2019-02-04T07:25:00.525Z,99.90
2019-02-04T07:29:24.128Z,99.90
2019-02-04T07:33:48.255Z,99.90
2019-02-04T07:38:11.972Z,99.90
2019-02-04T07:42:35.603Z,99.90
2019-02-04T07:46:59.399Z,99.90
2019-02-04T07:51:23.392Z,99.90
2019-02-04T07:55:46.968Z,99.80
2019-02-04T08:00:14.222Z,99.90
2019-02-04T08:04:38.347Z,99.90
2019-02-04T08:09:02.227Z,99.70
2019-02-04T08:13:27.453Z,99.60
2019-02-04T08:17:52.088Z,99.80
2019-02-04T08:22:16.000Z,99.60
2019-02-04T08:26:39.850Z,99.70
2019-02-04T08:31:03.695Z,99.50
2019-02-04T08:35:27.616Z,99.30
2019-02-04T08:39:51.955Z,99.30
2019-02-04T08:44:15.758Z,99.00
2019-02-04T08:48:39.309Z,99.00
2019-02-04T08:53:03.021Z,99.10
2019-02-04T08:57:27.314Z,98.60
2019-02-04T09:01:51.325Z,98.80
2019-02-04T09:06:14.964Z,98.40
2019-02-04T09:10:38.828Z,98.10
2019-02-04T09:15:03.040Z,98.20
2019-02-04T09:19:28.388Z,98.10
2019-02-04T09:23:52.402Z,98.20
2019-02-04T09:28:16.339Z,97.80
2019-02-04T09:32:40.091Z,97.80
2019-02-04T09:37:03.810Z,97.40
2019-02-04T09:41:27.520Z,96.80
2019-02-04T09:45:51.383Z,97.00
2019-02-04T09:50:25.248Z,96.90
2019-02-04T09:54:48.767Z,97.00
2019-02-04T09:59:12.544Z,96.50
2019-02-04T10:03:36.205Z,95.80
2019-02-04T10:08:00.175Z,93.60
2019-02-04T10:12:23.857Z,93.60
2019-02-04T10:16:48.049Z,93.10
2019-02-04T10:21:12.182Z,93.20
2019-02-04T10:25:43.457Z,93.20
2019-02-04T10:30:12.947Z,93.90
2019-02-04T10:34:37.734Z,90.70
2019-02-04T10:39:01.774Z,91.30
2019-02-04T10:46:36.505Z,87.70
2019-02-04T10:54:34.355Z,81.10
2019-02-04T10:58:58.920Z,78.50
2019-02-04T11:03:23.315Z,74.50
2019-02-04T11:07:47.621Z,70.10
2019-02-04T11:12:11.929Z,65.60
2019-02-04T11:16:36.137Z,61.70
2019-02-04T11:21:00.338Z,59.00
2019-02-04T11:25:24.713Z,60.70
2019-02-04T11:29:49.054Z,59.70
2019-02-04T11:34:14.634Z,60.50
2019-02-04T11:38:39.269Z,58.00
2019-02-04T11:43:03.473Z,56.60
2019-02-04T11:47:28.080Z,53.80
2019-02-04T11:51:52.609Z,50.60
2019-02-04T11:56:16.981Z,49.50
2019-02-04T12:00:42.163Z,48.80
2019-02-04T12:05:10.150Z,48.20
2019-02-04T12:09:34.518Z,43.50
2019-02-04T12:13:59.423Z,46.70
2019-02-04T12:18:24.224Z,46.70
2019-02-04T12:22:49.440Z,45.00
2019-02-04T12:27:14.139Z,46.20
2019-02-04T12:31:40.076Z,45.30
2019-02-04T12:36:04.857Z,42.50
2019-02-04T12:40:29.451Z,46.00
2019-02-04T12:44:54.351Z,47.30
2019-02-04T12:49:20.009Z,42.50
2019-02-04T12:53:44.472Z,41.30
2019-02-04T12:58:08.897Z,38.90
2019-02-04T13:02:33.356Z,38.90
2019-02-04T13:06:58.047Z,37.70
2019-02-04T13:11:22.462Z,41.50
2019-02-04T13:15:47.283Z,43.60
2019-02-04T13:20:14.366Z,41.50
2019-02-04T13:24:39.030Z,41.00
2019-02-04T13:29:03.578Z,42.50
2019-02-04T13:33:27.652Z,42.30
2019-02-04T13:37:52.237Z,43.30
2019-02-04T13:42:16.715Z,43.50
2019-02-04T13:46:41.605Z,44.40
2019-02-04T13:51:06.184Z,43.70
2019-02-04T13:55:32.809Z,44.40
2019-02-04T13:59:57.479Z,45.00
2019-02-04T14:04:21.985Z,45.90
2019-02-04T14:08:46.507Z,46.20
2019-02-04T14:13:10.823Z,46.70
2019-02-04T14:17:35.592Z,47.50
2019-02-04T14:22:08.891Z,50.50
2019-02-04T14:26:28.751Z,52.50
2019-02-04T14:30:53.532Z,54.30
2019-02-04T14:35:19.463Z,56.40
2019-02-04T14:39:45.910Z,57.20
2019-02-04T14:44:12.796Z,58.50
2019-02-04T14:48:46.681Z,59.80
2019-02-04T14:53:26.475Z,61.00
2019-02-04T14:58:06.707Z,62.10
2019-02-04T15:02:38.171Z,63.90
2019-02-04T15:07:15.059Z,66.10
2019-02-04T15:11:50.516Z,67.00
2019-02-04T15:16:36.396Z,68.20
2019-02-04T15:21:07.077Z,69.70
2019-02-04T15:25:55.489Z,71.30
2019-02-04T15:30:43.163Z,73.10
2019-02-04T15:35:26.605Z,74.00
2019-02-04T15:40:14.249Z,74.80
2019-02-04T15:45:06.193Z,76.10
2019-02-04T15:49:50.153Z,78.40
2019-02-04T15:54:05.838Z,79.60
2019-02-04T15:58:30.992Z,80.50
2019-02-04T16:02:57.343Z,81.90
2019-02-04T16:07:24.012Z,82.00
2019-02-04T16:11:49.160Z,82.70
2019-02-04T16:16:14.174Z,83.40
2019-02-04T16:20:38.879Z,84.80
2019-02-04T16:25:03.375Z,85.20
2019-02-04T16:29:27.975Z,85.80
2019-02-04T16:33:53.190Z,86.60
2019-02-04T16:38:18.304Z,87.60
2019-02-04T16:42:43.097Z,87.90
2019-02-04T16:47:08.223Z,89.20
2019-02-04T16:51:33.038Z,89.90
2019-02-04T16:55:57.840Z,90.20
2019-02-04T17:00:27.794Z,90.30
2019-02-04T17:04:54.311Z,90.60
2019-02-04T17:09:19.218Z,91.00
2019-02-04T17:13:44.979Z,91.10
2019-02-04T17:18:09.427Z,91.40
2019-02-04T17:22:34.152Z,91.40
2019-02-04T17:27:00.187Z,92.10
2019-02-04T17:31:25.606Z,92.30
2019-02-04T17:35:50.616Z,92.60
2019-02-04T17:40:20.449Z,92.90
2019-02-04T17:44:44.980Z,93.10
2019-02-04T17:49:11.702Z,93.30
2019-02-04T17:53:36.704Z,93.40
2019-02-04T17:58:01.333Z,93.50
2019-02-04T18:02:30.619Z,93.60
2019-02-04T18:06:55.423Z,93.90
2019-02-04T18:11:20.639Z,94.10
2019-02-04T18:15:46.572Z,94.10
2019-02-04T18:20:12.813Z,94.30
2019-02-04T18:24:37.415Z,94.50
2019-02-04T18:29:04.814Z,95.00
2019-02-04T18:33:29.740Z,94.50
2019-02-04T18:37:54.904Z,94.60
2019-02-04T18:42:20.463Z,95.00
2019-02-04T18:46:45.542Z,94.30
2019-02-04T18:51:10.655Z,95.10
2019-02-04T18:55:35.642Z,95.30
2019-02-04T19:00:00.512Z,95.60
2019-02-04T19:04:27.844Z,95.00
2019-02-04T19:08:55.415Z,95.30
2019-02-04T19:13:20.114Z,95.40
2019-02-04T19:17:45.125Z,95.40
2019-02-04T19:22:10.550Z,95.50
2019-02-04T19:26:36.136Z,95.60
2019-02-04T19:31:09.538Z,95.80
2019-02-04T19:35:35.028Z,95.70
2019-02-04T19:39:59.659Z,95.80
2019-02-04T19:44:24.413Z,95.70
2019-02-04T19:48:49.765Z,95.60
2019-02-04T19:53:15.354Z,95.50
2019-02-04T19:57:40.094Z,95.60
2019-02-04T20:02:05.072Z,95.50
2019-02-04T20:06:30.080Z,95.50
2019-02-04T20:10:55.908Z,95.60
2019-02-04T20:15:32.190Z,95.50
2019-02-04T20:19:58.529Z,95.50
2019-02-04T20:24:32.875Z,95.50
2019-02-04T20:28:50.903Z,95.40
2019-02-04T20:33:19.348Z,95.50
2019-02-04T20:37:45.430Z,95.50
2019-02-04T20:42:10.340Z,95.40
2019-02-04T20:46:36.584Z,95.40
2019-02-04T20:51:01.256Z,95.40
2019-02-04T20:55:27.872Z,95.40
2019-02-04T20:59:54.792Z,95.40
2019-02-04T21:04:19.500Z,95.40
2019-02-04T21:08:44.195Z,95.30
2019-02-04T21:13:09.215Z,95.20
2019-02-04T21:17:34.740Z,95.20
2019-02-04T21:21:59.437Z,95.10
2019-02-04T21:26:24.389Z,95.10
2019-02-04T21:30:49.461Z,95.10
2019-02-04T21:35:14.371Z,95.10
2019-02-04T21:39:43.883Z,95.10
2019-02-04T21:44:08.796Z,95.20
2019-02-04T21:48:35.593Z,94.90
2019-02-04T21:53:01.814Z,95.00
2019-02-04T21:57:28.732Z,94.90
2019-02-04T22:01:53.549Z,94.80
2019-02-04T22:06:18.153Z,94.80
2019-02-04T22:10:42.751Z,94.80
2019-02-04T22:15:09.399Z,94.70
2019-02-04T22:19:34.311Z,94.50
2019-02-04T22:23:59.422Z,94.40
2019-02-04T22:28:24.535Z,94.30
2019-02-04T22:32:49.648Z,94.30
2019-02-04T22:37:15.686Z,94.10
2019-02-04T22:41:40.286Z,93.90
2019-02-04T22:46:04.889Z,93.80
2019-02-04T22:50:30.926Z,93.70
2019-02-04T22:54:55.634Z,93.60
2019-02-04T22:59:19.913Z,93.50
2019-02-04T23:03:44.451Z,93.40
2019-02-04T23:08:08.785Z,93.20
2019-02-04T23:12:33.097Z,93.30
2019-02-04T23:16:57.838Z,93.20
2019-02-04T23:21:22.415Z,93.30
2019-02-04T23:25:47.270Z,93.40
2019-02-04T23:30:15.129Z,93.50
2019-02-04T23:34:39.620Z,93.40
2019-02-04T23:39:05.645Z,93.60
2019-02-04T23:43:31.305Z,93.60
2019-02-04T23:47:55.680Z,93.70
2019-02-04T23:52:19.908Z,93.80
2019-02-04T23:56:44.068Z,94.00
